sensor_id;sensor_type;location;lat;lon;timestamp;temperature;humidity
10129;DHT22;5104;50.720;7.044;2023-11-21T00:02:25;9.20;99.90
10129;DHT22;5104;50.720;7.044;2023-11-21T00:04:54;9.30;99.90
10129;DHT22;5104;50.720;7.044;2023-11-21T00:07:21;9.30;99.90
10129;DHT22;5104;50.720;7.044;2023-11-21T00:09:48;9.30;99.90
10129;DHT22;5104;50.720;7.044;2023-11-21T00:12:14;9.30;99.90
10129;DHT22;5104;50.720;7.044;2023-11-21T00:14:42;9.30;99.90
10129;DHT22;5104;50.720;7.044;2023-11-21T00:17:09;9.30;99.90
10129;DHT22;5104;50.720;7.044;2023-11-21T00:19:36;9.30;99.90
10129;DHT22;5104;50.720;7.044;2023-11-21T00:22:04;9.30;99.90
10129;DHT22;5104;50.720;7.044;2023-11-21T00:24:32;9.30;99.90
10129;DHT22;5104;50.720;7.044;2023-11-21T00:26:58;9.20;99.90
10129;DHT22;5104;50.720;7.044;2023-11-21T00:29:25;9.30;99.90
10129;DHT22;5104;50.720;7.044;2023-11-21T00:31:52;9.20;99.90
10129;DHT22;5104;50.720;7.044;2023-11-21T00:34:19;9.30;99.90
10129;DHT22;5104;50.720;7.044;2023-11-21T00:36:46;9.30;99.90
10129;DHT22;5104;50.720;7.044;2023-11-21T00:39:14;9.30;99.90
10129;DHT22;5104;50.720;7.044;2023-11-21T00:41:41;9.30;99.90
10129;DHT22;5104;50.720;7.044;2023-11-21T00:44:10;9.30;99.90
10129;DHT22;5104;50.720;7.044;2023-11-21T00:46:37;9.30;99.90
10129;DHT22;5104;50.720;7.044;2023-11-21T00:49:04;9.30;99.90
10129;DHT22;5104;50.720;7.044;2023-11-21T00:51:31;9.30;99.90
10129;DHT22;5104;50.720;7.044;2023-11-21T00:53:58;9.30;99.90
10129;DHT22;5104;50.720;7.044;2023-11-21T00:56:26;9.30;99.90
10129;DHT22;5104;50.720;7.044;2023-11-21T00:58:53;9.30;99.90
10129;DHT22;5104;50.720;7.044;2023-11-21T01:01:21;9.30;99.90
10129;DHT22;5104;50.720;7.044;2023-11-21T01:03:48;9.30;99.90
10129;DHT22;5104;50.720;7.044;2023-11-21T01:06:19;9.30;99.90
10129;DHT22;5104;50.720;7.044;2023-11-21T01:08:46;9.20;99.90
10129;DHT22;5104;50.720;7.044;2023-11-21T01:11:13;9.20;99.90
10129;DHT22;5104;50.720;7.044;2023-11-21T01:13:42;9.20;99.90
10129;DHT22;5104;50.720;7.044;2023-11-21T01:16:10;9.20;99.90
10129;DHT22;5104;50.720;7.044;2023-11-21T01:18:37;9.20;99.90
10129;DHT22;5104;50.720;7.044;2023-11-21T01:21:04;9.30;99.90
10129;DHT22;5104;50.720;7.044;2023-11-21T01:23:33;9.30;99.90
10129;DHT22;5104;50.720;7.044;2023-11-21T01:25:59;9.20;99.90
10129;DHT22;5104;50.720;7.044;2023-11-21T01:28:26;9.20;99.90
10129;DHT22;5104;50.720;7.044;2023-11-21T01:30:55;9.20;99.90
10129;DHT22;5104;50.720;7.044;2023-11-21T01:33:23;9.20;99.90
10129;DHT22;5104;50.720;7.044;2023-11-21T01:35:50;9.20;99.90
10129;DHT22;5104;50.720;7.044;2023-11-21T01:38:20;9.20;99.90
10129;DHT22;5104;50.720;7.044;2023-11-21T01:40:47;9.20;99.90
10129;DHT22;5104;50.720;7.044;2023-11-21T01:43:14;9.20;99.90
10129;DHT22;5104;50.720;7.044;2023-11-21T01:45:42;9.30;99.90
10129;DHT22;5104;50.720;7.044;2023-11-21T01:48:13;9.20;99.90
10129;DHT22;5104;50.720;7.044;2023-11-21T01:50:42;9.20;99.90
10129;DHT22;5104;50.720;7.044;2023-11-21T01:53:11;9.20;99.90
10129;DHT22;5104;50.720;7.044;2023-11-21T01:55:40;9.20;99.90
10129;DHT22;5104;50.720;7.044;2023-11-21T01:58:09;9.30;99.90
10129;DHT22;5104;50.720;7.044;2023-11-21T02:00:38;9.30;99.90
10129;DHT22;5104;50.720;7.044;2023-11-21T02:03:05;9.30;99.90
10129;DHT22;5104;50.720;7.044;2023-11-21T02:05:34;9.30;99.90
10129;DHT22;5104;50.720;7.044;2023-11-21T02:08:01;9.20;99.90
10129;DHT22;5104;50.720;7.044;2023-11-21T02:10:28;9.20;99.90
10129;DHT22;5104;50.720;7.044;2023-11-21T02:12:56;9.20;99.90
10129;DHT22;5104;50.720;7.044;2023-11-21T02:15:24;9.20;99.90
10129;DHT22;5104;50.720;7.044;2023-11-21T02:17:54;9.20;99.90
10129;DHT22;5104;50.720;7.044;2023-11-21T02:20:22;9.20;99.90
10129;DHT22;5104;50.720;7.044;2023-11-21T02:22:52;9.20;99.90
10129;DHT22;5104;50.720;7.044;2023-11-21T02:25:23;9.20;99.90
10129;DHT22;5104;50.720;7.044;2023-11-21T02:27:50;9.30;99.90
10129;DHT22;5104;50.720;7.044;2023-11-21T02:30:17;9.30;99.90
10129;DHT22;5104;50.720;7.044;2023-11-21T02:32:44;9.30;99.90
10129;DHT22;5104;50.720;7.044;2023-11-21T02:35:11;9.30;99.90
10129;DHT22;5104;50.720;7.044;2023-11-21T02:37:38;9.30;99.90
10129;DHT22;5104;50.720;7.044;2023-11-21T02:40:09;9.30;99.90
10129;DHT22;5104;50.720;7.044;2023-11-21T02:42:38;9.30;99.90
10129;DHT22;5104;50.720;7.044;2023-11-21T02:45:06;9.20;99.90
10129;DHT22;5104;50.720;7.044;2023-11-21T02:47:33;9.30;99.90
10129;DHT22;5104;50.720;7.044;2023-11-21T02:50:00;9.20;99.90
10129;DHT22;5104;50.720;7.044;2023-11-21T02:52:27;9.20;99.90
10129;DHT22;5104;50.720;7.044;2023-11-21T02:54:54;9.20;99.90
10129;DHT22;5104;50.720;7.044;2023-11-21T02:57:22;9.10;99.90
10129;DHT22;5104;50.720;7.044;2023-11-21T02:59:49;9.10;99.90
10129;DHT22;5104;50.720;7.044;2023-11-21T03:02:16;9.00;99.90
10129;DHT22;5104;50.720;7.044;2023-11-21T03:04:43;9.00;99.90
10129;DHT22;5104;50.720;7.044;2023-11-21T03:07:10;8.90;99.90
10129;DHT22;5104;50.720;7.044;2023-11-21T03:09:37;8.90;99.90
10129;DHT22;5104;50.720;7.044;2023-11-21T03:12:05;8.90;99.90
10129;DHT22;5104;50.720;7.044;2023-11-21T03:14:33;8.90;99.90
10129;DHT22;5104;50.720;7.044;2023-11-21T03:17:00;8.90;99.90
10129;DHT22;5104;50.720;7.044;2023-11-21T03:19:27;8.90;99.90
10129;DHT22;5104;50.720;7.044;2023-11-21T03:21:54;8.90;99.90
10129;DHT22;5104;50.720;7.044;2023-11-21T03:24:21;8.90;99.90
10129;DHT22;5104;50.720;7.044;2023-11-21T03:26:48;8.90;99.90
10129;DHT22;5104;50.720;7.044;2023-11-21T03:29:16;8.90;99.90
10129;DHT22;5104;50.720;7.044;2023-11-21T03:31:44;8.90;99.90
10129;DHT22;5104;50.720;7.044;2023-11-21T03:34:15;8.90;99.90
10129;DHT22;5104;50.720;7.044;2023-11-21T03:36:43;8.90;99.90
10129;DHT22;5104;50.720;7.044;2023-11-21T03:39:12;8.90;99.90
10129;DHT22;5104;50.720;7.044;2023-11-21T03:41:38;8.90;99.90
10129;DHT22;5104;50.720;7.044;2023-11-21T03:44:05;8.80;99.90
10129;DHT22;5104;50.720;7.044;2023-11-21T03:46:32;8.90;99.90
10129;DHT22;5104;50.720;7.044;2023-11-21T03:49:00;8.80;99.90
10129;DHT22;5104;50.720;7.044;2023-11-21T03:51:27;8.90;99.90
10129;DHT22;5104;50.720;7.044;2023-11-21T03:53:53;8.90;99.90
10129;DHT22;5104;50.720;7.044;2023-11-21T03:56:20;8.90;99.90
10129;DHT22;5104;50.720;7.044;2023-11-21T03:58:47;8.90;99.90
10129;DHT22;5104;50.720;7.044;2023-11-21T04:01:20;8.90;99.90
10129;DHT22;5104;50.720;7.044;2023-11-21T04:03:48;9.00;99.90
10129;DHT22;5104;50.720;7.044;2023-11-21T04:06:16;8.90;99.90
10129;DHT22;5104;50.720;7.044;2023-11-21T04:08:43;8.90;99.90
10129;DHT22;5104;50.720;7.044;2023-11-21T04:11:11;9.00;99.90
10129;DHT22;5104;50.720;7.044;2023-11-21T04:13:38;9.00;99.90
10129;DHT22;5104;50.720;7.044;2023-11-21T04:16:06;9.00;99.90
10129;DHT22;5104;50.720;7.044;2023-11-21T04:18:33;9.00;99.90
10129;DHT22;5104;50.720;7.044;2023-11-21T04:21:00;9.00;99.90
10129;DHT22;5104;50.720;7.044;2023-11-21T04:23:29;9.00;99.90
10129;DHT22;5104;50.720;7.044;2023-11-21T04:25:57;9.00;99.90
10129;DHT22;5104;50.720;7.044;2023-11-21T04:28:24;9.00;99.90
10129;DHT22;5104;50.720;7.044;2023-11-21T04:30:51;9.00;99.90
10129;DHT22;5104;50.720;7.044;2023-11-21T04:33:18;9.00;99.90
10129;DHT22;5104;50.720;7.044;2023-11-21T04:35:45;8.90;99.90
10129;DHT22;5104;50.720;7.044;2023-11-21T04:38:12;8.90;99.90
10129;DHT22;5104;50.720;7.044;2023-11-21T04:40:40;9.00;99.90
10129;DHT22;5104;50.720;7.044;2023-11-21T04:43:07;8.90;99.90
10129;DHT22;5104;50.720;7.044;2023-11-21T04:45:34;8.90;99.90
10129;DHT22;5104;50.720;7.044;2023-11-21T04:48:00;9.00;99.90
10129;DHT22;5104;50.720;7.044;2023-11-21T04:50:27;9.00;99.90
10129;DHT22;5104;50.720;7.044;2023-11-21T04:52:54;9.00;99.90
10129;DHT22;5104;50.720;7.044;2023-11-21T04:55:21;9.00;99.90
10129;DHT22;5104;50.720;7.044;2023-11-21T04:57:49;8.90;99.90
10129;DHT22;5104;50.720;7.044;2023-11-21T05:00:17;8.90;99.90
10129;DHT22;5104;50.720;7.044;2023-11-21T05:02:43;8.90;99.90
10129;DHT22;5104;50.720;7.044;2023-11-21T05:05:10;8.80;99.90
10129;DHT22;5104;50.720;7.044;2023-11-21T05:07:38;8.90;99.90
10129;DHT22;5104;50.720;7.044;2023-11-21T05:10:05;8.80;99.90
10129;DHT22;5104;50.720;7.044;2023-11-21T05:12:36;8.80;99.90
10129;DHT22;5104;50.720;7.044;2023-11-21T05:15:06;8.80;99.90
10129;DHT22;5104;50.720;7.044;2023-11-21T05:17:35;8.80;99.90
10129;DHT22;5104;50.720;7.044;2023-11-21T05:20:03;8.80;99.90
10129;DHT22;5104;50.720;7.044;2023-11-21T05:22:30;8.70;99.90
10129;DHT22;5104;50.720;7.044;2023-11-21T05:24:57;8.70;99.90
10129;DHT22;5104;50.720;7.044;2023-11-21T05:27:24;8.70;99.90
10129;DHT22;5104;50.720;7.044;2023-11-21T05:29:51;8.70;99.90
10129;DHT22;5104;50.720;7.044;2023-11-21T05:32:20;8.60;99.90
10129;DHT22;5104;50.720;7.044;2023-11-21T05:34:46;8.60;99.90
10129;DHT22;5104;50.720;7.044;2023-11-21T05:37:13;8.60;99.90
10129;DHT22;5104;50.720;7.044;2023-11-21T05:39:40;8.60;99.90
10129;DHT22;5104;50.720;7.044;2023-11-21T05:42:07;8.60;99.90
10129;DHT22;5104;50.720;7.044;2023-11-21T05:44:36;8.50;99.90
10129;DHT22;5104;50.720;7.044;2023-11-21T05:47:03;8.50;99.90
10129;DHT22;5104;50.720;7.044;2023-11-21T05:49:33;8.50;99.90
10129;DHT22;5104;50.720;7.044;2023-11-21T05:52:00;8.60;99.90
10129;DHT22;5104;50.720;7.044;2023-11-21T05:54:27;8.60;99.90
10129;DHT22;5104;50.720;7.044;2023-11-21T05:56:54;8.60;99.90
10129;DHT22;5104;50.720;7.044;2023-11-21T05:59:21;8.60;99.90
10129;DHT22;5104;50.720;7.044;2023-11-21T06:01:48;8.60;99.90
10129;DHT22;5104;50.720;7.044;2023-11-21T06:04:15;8.60;99.90
10129;DHT22;5104;50.720;7.044;2023-11-21T06:06:43;8.70;99.90
10129;DHT22;5104;50.720;7.044;2023-11-21T06:09:10;8.70;99.90
10129;DHT22;5104;50.720;7.044;2023-11-21T06:11:37;8.70;99.90
10129;DHT22;5104;50.720;7.044;2023-11-21T06:14:04;8.70;99.90
10129;DHT22;5104;50.720;7.044;2023-11-21T06:16:33;8.70;99.90
10129;DHT22;5104;50.720;7.044;2023-11-21T06:19:00;8.70;99.90
10129;DHT22;5104;50.720;7.044;2023-11-21T06:21:27;8.70;99.90
10129;DHT22;5104;50.720;7.044;2023-11-21T06:23:55;8.80;99.90
10129;DHT22;5104;50.720;7.044;2023-11-21T06:26:22;8.70;99.90
10129;DHT22;5104;50.720;7.044;2023-11-21T06:28:49;8.70;99.90
10129;DHT22;5104;50.720;7.044;2023-11-21T06:31:18;8.70;99.90
10129;DHT22;5104;50.720;7.044;2023-11-21T06:33:45;8.70;99.90
10129;DHT22;5104;50.720;7.044;2023-11-21T06:36:12;8.70;99.90
10129;DHT22;5104;50.720;7.044;2023-11-21T06:38:39;8.70;99.90
10129;DHT22;5104;50.720;7.044;2023-11-21T06:41:07;8.70;99.90
10129;DHT22;5104;50.720;7.044;2023-11-21T06:43:34;8.70;99.90
10129;DHT22;5104;50.720;7.044;2023-11-21T06:46:01;8.70;99.90
10129;DHT22;5104;50.720;7.044;2023-11-21T06:48:30;8.70;99.90
10129;DHT22;5104;50.720;7.044;2023-11-21T06:50:56;8.70;99.90
10129;DHT22;5104;50.720;7.044;2023-11-21T06:53:23;8.80;99.90
10129;DHT22;5104;50.720;7.044;2023-11-21T06:55:50;8.80;99.90
10129;DHT22;5104;50.720;7.044;2023-11-21T06:58:19;8.80;99.90
10129;DHT22;5104;50.720;7.044;2023-11-21T07:00:46;8.80;99.90
10129;DHT22;5104;50.720;7.044;2023-11-21T07:03:15;8.80;99.90
10129;DHT22;5104;50.720;7.044;2023-11-21T07:05:44;8.80;99.90
10129;DHT22;5104;50.720;7.044;2023-11-21T07:08:11;8.90;99.90
10129;DHT22;5104;50.720;7.044;2023-11-21T07:10:38;8.80;99.90
10129;DHT22;5104;50.720;7.044;2023-11-21T07:13:05;8.80;99.90
10129;DHT22;5104;50.720;7.044;2023-11-21T07:15:34;8.80;99.90
10129;DHT22;5104;50.720;7.044;2023-11-21T07:18:00;8.80;99.90
10129;DHT22;5104;50.720;7.044;2023-11-21T07:20:28;8.90;99.90
10129;DHT22;5104;50.720;7.044;2023-11-21T07:22:55;8.90;99.90
10129;DHT22;5104;50.720;7.044;2023-11-21T07:25:23;8.90;99.90
10129;DHT22;5104;50.720;7.044;2023-11-21T07:27:50;8.90;99.90
10129;DHT22;5104;50.720;7.044;2023-11-21T07:30:18;8.90;99.90
10129;DHT22;5104;50.720;7.044;2023-11-21T07:32:46;9.00;99.90
10129;DHT22;5104;50.720;7.044;2023-11-21T07:35:13;9.00;99.90
10129;DHT22;5104;50.720;7.044;2023-11-21T07:37:40;9.00;99.90
10129;DHT22;5104;50.720;7.044;2023-11-21T07:40:09;9.00;99.90
10129;DHT22;5104;50.720;7.044;2023-11-21T07:42:37;9.00;99.90
10129;DHT22;5104;50.720;7.044;2023-11-21T07:45:05;9.00;99.90
10129;DHT22;5104;50.720;7.044;2023-11-21T07:47:32;9.10;99.90
10129;DHT22;5104;50.720;7.044;2023-11-21T07:50:02;9.10;99.90
10129;DHT22;5104;50.720;7.044;2023-11-21T07:52:30;9.10;99.90
10129;DHT22;5104;50.720;7.044;2023-11-21T07:54:56;9.10;99.90
10129;DHT22;5104;50.720;7.044;2023-11-21T07:57:23;9.20;99.90
10129;DHT22;5104;50.720;7.044;2023-11-21T07:59:50;9.20;99.90
10129;DHT22;5104;50.720;7.044;2023-11-21T08:02:19;9.20;99.90
10129;DHT22;5104;50.720;7.044;2023-11-21T08:04:46;9.20;99.90
10129;DHT22;5104;50.720;7.044;2023-11-21T08:07:16;9.20;99.90
10129;DHT22;5104;50.720;7.044;2023-11-21T08:09:43;9.20;99.90
10129;DHT22;5104;50.720;7.044;2023-11-21T08:12:12;9.20;99.90
10129;DHT22;5104;50.720;7.044;2023-11-21T08:14:40;9.20;99.90
10129;DHT22;5104;50.720;7.044;2023-11-21T08:17:07;9.30;99.90
10129;DHT22;5104;50.720;7.044;2023-11-21T08:19:36;9.30;99.90
10129;DHT22;5104;50.720;7.044;2023-11-21T08:22:03;9.30;99.90
10129;DHT22;5104;50.720;7.044;2023-11-21T08:24:34;9.30;99.90
10129;DHT22;5104;50.720;7.044;2023-11-21T08:27:01;9.40;99.90
10129;DHT22;5104;50.720;7.044;2023-11-21T08:29:29;9.50;99.90
10129;DHT22;5104;50.720;7.044;2023-11-21T08:31:57;9.50;99.90
10129;DHT22;5104;50.720;7.044;2023-11-21T08:34:25;9.60;99.90
10129;DHT22;5104;50.720;7.044;2023-11-21T08:36:52;9.60;99.90
10129;DHT22;5104;50.720;7.044;2023-11-21T08:39:19;9.70;99.90
10129;DHT22;5104;50.720;7.044;2023-11-21T08:41:47;9.80;99.90
10129;DHT22;5104;50.720;7.044;2023-11-21T08:44:14;9.80;99.90
10129;DHT22;5104;50.720;7.044;2023-11-21T08:46:43;10.00;99.90
10129;DHT22;5104;50.720;7.044;2023-11-21T08:49:10;10.00;99.90
10129;DHT22;5104;50.720;7.044;2023-11-21T08:51:38;10.10;99.90
10129;DHT22;5104;50.720;7.044;2023-11-21T08:54:05;10.20;99.90
10129;DHT22;5104;50.720;7.044;2023-11-21T08:56:33;10.10;99.90
10129;DHT22;5104;50.720;7.044;2023-11-21T08:59:02;10.20;99.90
10129;DHT22;5104;50.720;7.044;2023-11-21T09:01:29;10.30;99.90
10129;DHT22;5104;50.720;7.044;2023-11-21T09:03:57;10.30;99.90
10129;DHT22;5104;50.720;7.044;2023-11-21T09:06:24;10.40;99.90
10129;DHT22;5104;50.720;7.044;2023-11-21T09:08:51;10.50;99.90
10129;DHT22;5104;50.720;7.044;2023-11-21T09:11:18;10.50;99.90
10129;DHT22;5104;50.720;7.044;2023-11-21T09:13:45;10.60;99.90
10129;DHT22;5104;50.720;7.044;2023-11-21T09:16:14;10.70;99.90
10129;DHT22;5104;50.720;7.044;2023-11-21T09:18:41;10.80;99.90
10129;DHT22;5104;50.720;7.044;2023-11-21T09:21:08;10.90;99.90
10129;DHT22;5104;50.720;7.044;2023-11-21T09:23:35;11.00;99.90
10129;DHT22;5104;50.720;7.044;2023-11-21T09:26:02;11.10;99.90
10129;DHT22;5104;50.720;7.044;2023-11-21T09:28:31;11.10;99.90
10129;DHT22;5104;50.720;7.044;2023-11-21T09:30:57;11.10;99.90
10129;DHT22;5104;50.720;7.044;2023-11-21T09:33:26;11.00;99.90
10129;DHT22;5104;50.720;7.044;2023-11-21T09:35:53;10.80;99.90
10129;DHT22;5104;50.720;7.044;2023-11-21T09:38:20;10.80;99.90
10129;DHT22;5104;50.720;7.044;2023-11-21T09:40:47;10.90;99.90
10129;DHT22;5104;50.720;7.044;2023-11-21T09:43:17;11.00;99.90
10129;DHT22;5104;50.720;7.044;2023-11-21T09:45:46;11.10;99.90
10129;DHT22;5104;50.720;7.044;2023-11-21T09:48:14;11.10;99.90
10129;DHT22;5104;50.720;7.044;2023-11-21T09:50:44;11.10;99.90
10129;DHT22;5104;50.720;7.044;2023-11-21T09:53:17;11.10;99.90
10129;DHT22;5104;50.720;7.044;2023-11-21T09:55:47;11.10;99.90
10129;DHT22;5104;50.720;7.044;2023-11-21T09:58:16;11.10;99.90
10129;DHT22;5104;50.720;7.044;2023-11-21T10:00:44;11.00;99.90
10129;DHT22;5104;50.720;7.044;2023-11-21T10:03:11;11.00;99.90
10129;DHT22;5104;50.720;7.044;2023-11-21T10:05:39;10.90;99.90
10129;DHT22;5104;50.720;7.044;2023-11-21T10:08:09;10.90;99.90
10129;DHT22;5104;50.720;7.044;2023-11-21T10:10:37;10.90;99.90
10129;DHT22;5104;50.720;7.044;2023-11-21T10:13:06;10.90;99.90
10129;DHT22;5104;50.720;7.044;2023-11-21T10:15:33;11.00;99.90
10129;DHT22;5104;50.720;7.044;2023-11-21T10:18:03;11.00;99.90
10129;DHT22;5104;50.720;7.044;2023-11-21T10:20:32;11.10;99.90
10129;DHT22;5104;50.720;7.044;2023-11-21T10:23:01;11.10;99.90
10129;DHT22;5104;50.720;7.044;2023-11-21T10:25:30;11.20;99.90
10129;DHT22;5104;50.720;7.044;2023-11-21T10:27:58;11.20;99.90
10129;DHT22;5104;50.720;7.044;2023-11-21T10:30:32;11.10;99.90
10129;DHT22;5104;50.720;7.044;2023-11-21T10:33:03;11.20;99.90
10129;DHT22;5104;50.720;7.044;2023-11-21T10:35:43;11.20;99.90
10129;DHT22;5104;50.720;7.044;2023-11-21T10:38:14;11.30;99.90
10129;DHT22;5104;50.720;7.044;2023-11-21T10:40:43;11.30;99.90
10129;DHT22;5104;50.720;7.044;2023-11-21T10:43:12;11.30;99.90
10129;DHT22;5104;50.720;7.044;2023-11-21T10:45:41;11.30;99.90
10129;DHT22;5104;50.720;7.044;2023-11-21T10:48:09;11.40;99.90
10129;DHT22;5104;50.720;7.044;2023-11-21T10:50:36;11.40;99.90
10129;DHT22;5104;50.720;7.044;2023-11-21T10:53:04;11.40;99.90
10129;DHT22;5104;50.720;7.044;2023-11-21T10:55:32;11.40;99.90
10129;DHT22;5104;50.720;7.044;2023-11-21T10:58:02;11.50;99.90
10129;DHT22;5104;50.720;7.044;2023-11-21T11:00:31;11.60;99.90
10129;DHT22;5104;50.720;7.044;2023-11-21T11:02:59;11.70;99.90
10129;DHT22;5104;50.720;7.044;2023-11-21T11:05:27;11.70;99.90
10129;DHT22;5104;50.720;7.044;2023-11-21T11:07:58;11.80;99.90
10129;DHT22;5104;50.720;7.044;2023-11-21T11:10:29;11.80;99.90
10129;DHT22;5104;50.720;7.044;2023-11-21T11:12:56;11.70;99.90
10129;DHT22;5104;50.720;7.044;2023-11-21T11:15:25;11.60;99.90
10129;DHT22;5104;50.720;7.044;2023-11-21T11:17:53;11.50;99.90
10129;DHT22;5104;50.720;7.044;2023-11-21T11:20:24;11.40;99.90
10129;DHT22;5104;50.720;7.044;2023-11-21T11:23:04;11.40;99.90
10129;DHT22;5104;50.720;7.044;2023-11-21T11:25:47;11.50;99.90
10129;DHT22;5104;50.720;7.044;2023-11-21T11:28:21;11.60;99.90
10129;DHT22;5104;50.720;7.044;2023-11-21T11:31:00;11.60;99.90
10129;DHT22;5104;50.720;7.044;2023-11-21T11:33:36;11.70;99.90
10129;DHT22;5104;50.720;7.044;2023-11-21T11:36:06;11.70;99.90
10129;DHT22;5104;50.720;7.044;2023-11-21T11:38:36;11.90;99.90
10129;DHT22;5104;50.720;7.044;2023-11-21T11:41:05;11.90;99.90
10129;DHT22;5104;50.720;7.044;2023-11-21T11:43:32;11.90;99.90
10129;DHT22;5104;50.720;7.044;2023-11-21T11:46:10;11.70;99.90
10129;DHT22;5104;50.720;7.044;2023-11-21T11:48:39;11.60;99.90
10129;DHT22;5104;50.720;7.044;2023-11-21T11:51:11;11.50;99.90
10129;DHT22;5104;50.720;7.044;2023-11-21T11:53:40;11.40;99.90
10129;DHT22;5104;50.720;7.044;2023-11-21T11:56:23;11.30;99.90
10129;DHT22;5104;50.720;7.044;2023-11-21T11:58:52;11.10;99.90
10129;DHT22;5104;50.720;7.044;2023-11-21T12:01:22;11.10;99.90
10129;DHT22;5104;50.720;7.044;2023-11-21T12:07:00;11.20;99.90
10129;DHT22;5104;50.720;7.044;2023-11-21T12:09:30;11.20;99.90
10129;DHT22;5104;50.720;7.044;2023-11-21T12:11:58;11.30;99.90
10129;DHT22;5104;50.720;7.044;2023-11-21T12:14:25;11.40;99.90
10129;DHT22;5104;50.720;7.044;2023-11-21T12:16:54;11.40;99.90
10129;DHT22;5104;50.720;7.044;2023-11-21T12:19:21;11.50;99.90
10129;DHT22;5104;50.720;7.044;2023-11-21T12:21:49;11.50;99.90
10129;DHT22;5104;50.720;7.044;2023-11-21T12:24:17;11.40;99.90
10129;DHT22;5104;50.720;7.044;2023-11-21T12:26:44;11.40;99.90
10129;DHT22;5104;50.720;7.044;2023-11-21T12:29:11;11.40;99.90
10129;DHT22;5104;50.720;7.044;2023-11-21T12:31:38;11.30;99.90
10129;DHT22;5104;50.720;7.044;2023-11-21T12:34:08;11.30;99.90
10129;DHT22;5104;50.720;7.044;2023-11-21T12:36:37;11.30;99.90
10129;DHT22;5104;50.720;7.044;2023-11-21T12:39:04;11.20;99.90
10129;DHT22;5104;50.720;7.044;2023-11-21T12:41:31;11.30;99.90
10129;DHT22;5104;50.720;7.044;2023-11-21T12:43:58;11.30;99.90
10129;DHT22;5104;50.720;7.044;2023-11-21T12:46:25;11.30;99.90
10129;DHT22;5104;50.720;7.044;2023-11-21T12:48:56;11.30;99.90
10129;DHT22;5104;50.720;7.044;2023-11-21T12:51:25;11.40;99.90
10129;DHT22;5104;50.720;7.044;2023-11-21T12:53:52;11.40;99.90
10129;DHT22;5104;50.720;7.044;2023-11-21T12:56:21;11.50;99.90
10129;DHT22;5104;50.720;7.044;2023-11-21T12:58:49;11.50;99.90
10129;DHT22;5104;50.720;7.044;2023-11-21T13:01:17;11.30;99.90
10129;DHT22;5104;50.720;7.044;2023-11-21T13:03:48;11.40;99.90
10129;DHT22;5104;50.720;7.044;2023-11-21T13:06:17;11.40;99.90
10129;DHT22;5104;50.720;7.044;2023-11-21T13:08:46;11.50;99.90
10129;DHT22;5104;50.720;7.044;2023-11-21T13:11:14;11.50;99.90
10129;DHT22;5104;50.720;7.044;2023-11-21T13:13:41;11.70;99.90
10129;DHT22;5104;50.720;7.044;2023-11-21T13:16:09;11.80;99.90
10129;DHT22;5104;50.720;7.044;2023-11-21T13:18:37;11.90;99.90
10129;DHT22;5104;50.720;7.044;2023-11-21T13:21:06;11.80;99.90
10129;DHT22;5104;50.720;7.044;2023-11-21T13:23:37;11.60;99.90
10129;DHT22;5104;50.720;7.044;2023-11-21T13:26:06;11.40;99.90
10129;DHT22;5104;50.720;7.044;2023-11-21T13:28:34;11.30;99.90
10129;DHT22;5104;50.720;7.044;2023-11-21T13:31:04;11.10;99.90
10129;DHT22;5104;50.720;7.044;2023-11-21T13:33:46;11.00;99.90
10129;DHT22;5104;50.720;7.044;2023-11-21T13:36:20;11.10;99.90
10129;DHT22;5104;50.720;7.044;2023-11-21T13:38:49;11.10;99.90
10129;DHT22;5104;50.720;7.044;2023-11-21T13:41:19;11.10;99.90
10129;DHT22;5104;50.720;7.044;2023-11-21T13:43:53;11.10;99.90
10129;DHT22;5104;50.720;7.044;2023-11-21T13:46:29;11.10;99.90
10129;DHT22;5104;50.720;7.044;2023-11-21T13:49:02;11.10;99.90
10129;DHT22;5104;50.720;7.044;2023-11-21T13:51:35;11.00;99.90
10129;DHT22;5104;50.720;7.044;2023-11-21T13:54:06;10.90;99.90
10129;DHT22;5104;50.720;7.044;2023-11-21T13:56:36;10.80;99.90
10129;DHT22;5104;50.720;7.044;2023-11-21T13:59:05;10.80;99.90
10129;DHT22;5104;50.720;7.044;2023-11-21T14:01:42;10.80;99.90
10129;DHT22;5104;50.720;7.044;2023-11-21T14:04:21;10.80;99.90
10129;DHT22;5104;50.720;7.044;2023-11-21T14:07:01;10.80;99.90
10129;DHT22;5104;50.720;7.044;2023-11-21T14:09:44;10.80;99.90
10129;DHT22;5104;50.720;7.044;2023-11-21T14:12:13;10.80;99.90
10129;DHT22;5104;50.720;7.044;2023-11-21T14:14:41;10.80;99.90
10129;DHT22;5104;50.720;7.044;2023-11-21T14:17:09;10.90;99.90
10129;DHT22;5104;50.720;7.044;2023-11-21T14:19:36;10.90;99.90
10129;DHT22;5104;50.720;7.044;2023-11-21T14:22:09;10.90;99.90
10129;DHT22;5104;50.720;7.044;2023-11-21T14:24:36;10.90;99.90
10129;DHT22;5104;50.720;7.044;2023-11-21T14:27:07;10.80;99.90
10129;DHT22;5104;50.720;7.044;2023-11-21T14:29:35;10.80;99.90
10129;DHT22;5104;50.720;7.044;2023-11-21T14:32:05;10.80;99.90
10129;DHT22;5104;50.720;7.044;2023-11-21T14:34:32;10.80;99.90
10129;DHT22;5104;50.720;7.044;2023-11-21T14:36:59;10.80;99.90
10129;DHT22;5104;50.720;7.044;2023-11-21T14:39:28;10.70;99.90
10129;DHT22;5104;50.720;7.044;2023-11-21T14:41:56;10.70;99.90
10129;DHT22;5104;50.720;7.044;2023-11-21T14:44:24;10.70;99.90
10129;DHT22;5104;50.720;7.044;2023-11-21T14:46:56;10.70;99.90
10129;DHT22;5104;50.720;7.044;2023-11-21T14:49:24;10.70;99.90
10129;DHT22;5104;50.720;7.044;2023-11-21T14:51:54;10.70;99.90
10129;DHT22;5104;50.720;7.044;2023-11-21T14:54:27;10.70;99.90
10129;DHT22;5104;50.720;7.044;2023-11-21T14:57:06;10.70;99.90
10129;DHT22;5104;50.720;7.044;2023-11-21T14:59:36;10.70;99.90
10129;DHT22;5104;50.720;7.044;2023-11-21T15:02:04;10.70;99.90
10129;DHT22;5104;50.720;7.044;2023-11-21T15:04:41;10.70;99.90
10129;DHT22;5104;50.720;7.044;2023-11-21T15:07:09;10.70;99.90
10129;DHT22;5104;50.720;7.044;2023-11-21T15:09:36;10.70;99.90
10129;DHT22;5104;50.720;7.044;2023-11-21T15:12:05;10.70;99.90
10129;DHT22;5104;50.720;7.044;2023-11-21T15:14:41;10.70;99.90
10129;DHT22;5104;50.720;7.044;2023-11-21T15:17:09;10.60;99.90
10129;DHT22;5104;50.720;7.044;2023-11-21T15:19:37;10.60;99.90
10129;DHT22;5104;50.720;7.044;2023-11-21T15:22:04;10.60;99.90
10129;DHT22;5104;50.720;7.044;2023-11-21T15:24:32;10.60;99.90
10129;DHT22;5104;50.720;7.044;2023-11-21T15:26:59;10.60;99.90
10129;DHT22;5104;50.720;7.044;2023-11-21T15:29:28;10.50;99.90
10129;DHT22;5104;50.720;7.044;2023-11-21T15:31:55;10.50;99.90
10129;DHT22;5104;50.720;7.044;2023-11-21T15:34:24;10.50;99.90
10129;DHT22;5104;50.720;7.044;2023-11-21T15:36:52;10.50;99.90
10129;DHT22;5104;50.720;7.044;2023-11-21T15:39:20;10.50;99.90
10129;DHT22;5104;50.720;7.044;2023-11-21T15:41:51;10.50;99.90
10129;DHT22;5104;50.720;7.044;2023-11-21T15:44:18;10.50;99.90
10129;DHT22;5104;50.720;7.044;2023-11-21T15:46:45;10.50;99.90
10129;DHT22;5104;50.720;7.044;2023-11-21T15:49:13;10.50;99.90
10129;DHT22;5104;50.720;7.044;2023-11-21T15:51:45;10.50;99.90
10129;DHT22;5104;50.720;7.044;2023-11-21T15:54:13;10.50;99.90
10129;DHT22;5104;50.720;7.044;2023-11-21T15:56:39;10.40;99.90
10129;DHT22;5104;50.720;7.044;2023-11-21T15:59:07;10.40;99.90
10129;DHT22;5104;50.720;7.044;2023-11-21T16:01:36;10.40;99.90
10129;DHT22;5104;50.720;7.044;2023-11-21T16:04:07;10.40;99.90
10129;DHT22;5104;50.720;7.044;2023-11-21T16:06:34;10.40;99.90